Time;durP1;ratioP1;P1;durP2;ratioP2;P2;SDS_P1;SDS_P2;PMS_P1;PMS_P2;Temp;Humidity;BMP_temperature;BMP_pressure;BME280_temperature;BME280_humidity;BME280_pressure;Samples;Min_cycle;Max_cycle;Signal;HPM_P1;HPM_P2
2023/09/10 00:02:03;;;;;;;10.00;6.50;;;17.90;78.30;;;;;;5006819;28;20032;-76
2023/09/10 00:04:32;;;;;;;8.13;6.28;;;17.90;78.60;;;;;;5005045;28;20424;-75
2023/09/10 00:06:58;;;;;;;8.60;6.38;;;17.90;78.50;;;;;;5006484;28;20436;-75
2023/09/10 00:09:23;;;;;;;7.28;6.05;;;17.90;78.60;;;;;;5006434;28;20034;-76
2023/09/10 00:11:49;;;;;;;6.22;5.60;;;17.90;79.00;;;;;;5006151;28;20034;-76
2023/09/10 00:14:15;;;;;;;8.30;6.00;;;17.90;78.70;;;;;;5006764;28;20507;-75
2023/09/10 00:16:41;;;;;;;7.80;6.47;;;17.90;79.10;;;;;;5005383;28;20052;-76
2023/09/10 00:19:07;;;;;;;8.60;6.43;;;17.90;79.10;;;;;;5006075;28;20093;-76
2023/09/10 00:21:33;;;;;;;6.30;5.70;;;17.90;79.10;;;;;;5006494;28;20087;-75
2023/09/10 00:23:59;;;;;;;7.57;6.07;;;17.90;79.10;;;;;;5006362;28;20073;-75
2023/09/10 00:26:26;;;;;;;9.18;6.32;;;17.80;79.00;;;;;;5021870;28;20048;-75
2023/09/10 00:28:53;;;;;;;8.60;5.78;;;17.90;79.00;;;;;;5006426;28;20252;-75
2023/09/10 00:31:19;;;;;;;7.90;6.38;;;17.90;79.00;;;;;;5004888;28;20575;-75
2023/09/10 00:33:45;;;;;;;9.00;7.47;;;17.90;79.00;;;;;;5005493;28;20042;-75
2023/09/10 00:36:11;;;;;;;8.15;6.82;;;17.90;79.00;;;;;;5004578;28;20048;-75
2023/09/10 00:38:37;;;;;;;8.80;6.72;;;17.90;78.90;;;;;;5006126;28;20105;-75
2023/09/10 00:41:07;;;;;;;7.70;6.15;;;17.90;78.80;;;;;;5006583;28;20477;-75
2023/09/10 00:43:34;;;;;;;7.13;6.40;;;17.90;78.90;;;;;;5006207;28;20470;-75
2023/09/10 00:46:02;;;;;;;8.20;6.15;;;17.90;78.90;;;;;;5004792;28;20034;-74
2023/09/10 00:48:28;;;;;;;6.53;5.80;;;17.90;78.90;;;;;;5004686;28;20030;-75
2023/09/10 00:50:54;;;;;;;8.77;6.32;;;17.90;78.90;;;;;;5021090;28;20057;-75
2023/09/10 00:53:22;;;;;;;8.00;5.97;;;17.90;78.90;;;;;;5005255;28;20052;-75
2023/09/10 00:55:49;;;;;;;6.95;5.70;;;17.90;78.80;;;;;;4996663;28;20053;-75
2023/09/10 00:58:15;;;;;;;7.45;6.30;;;17.90;78.70;;;;;;5006339;28;20042;-76
2023/09/10 01:00:44;;;;;;;6.78;5.97;;;17.90;78.60;;;;;;5020829;28;20037;-76
2023/09/10 01:03:10;;;;;;;6.72;5.60;;;17.90;78.50;;;;;;5020543;28;20496;-76
2023/09/10 01:05:36;;;;;;;7.63;6.18;;;17.90;78.40;;;;;;4999718;28;20048;-75
2023/09/10 01:08:03;;;;;;;6.90;5.90;;;17.90;78.40;;;;;;5005664;28;20034;-75
2023/09/10 01:10:40;;;;;;;7.97;6.47;;;17.90;78.50;;;;;;5004309;28;20540;-76
2023/09/10 01:13:13;;;;;;;9.60;7.25;;;17.90;78.40;;;;;;5016830;28;20046;-76
2023/09/10 01:16:02;;;;;;;7.97;6.53;;;17.80;78.40;;;;;;5020487;28;20042;-76
2023/09/10 01:18:51;;;;;;;7.72;6.18;;;17.90;78.40;;;;;;5037234;28;20058;-76
2023/09/10 01:21:38;;;;;;;8.20;6.22;;;17.90;78.30;;;;;;5020204;28;20096;-76
2023/09/10 01:24:11;;;;;;;10.68;6.30;;;17.90;78.30;;;;;;5019628;28;20057;-76
2023/09/10 01:26:37;;;;;;;9.05;6.28;;;17.90;78.30;;;;;;5004017;28;20555;-75
2023/09/10 01:29:04;;;;;;;7.50;6.03;;;17.90;78.20;;;;;;5021369;28;20042;-74
2023/09/10 01:31:34;;;;;;;8.48;6.18;;;17.90;78.30;;;;;;5020894;28;20038;-75
2023/09/10 01:34:03;;;;;;;8.35;6.20;;;17.90;78.30;;;;;;5023764;28;20041;-75
2023/09/10 01:36:40;;;;;;;6.95;6.13;;;17.90;78.20;;;;;;5019147;28;20033;-75
2023/09/10 01:39:27;;;;;;;7.65;5.85;;;17.90;78.20;;;;;;5007432;28;20658;-75
2023/09/10 01:41:55;;;;;;;9.55;6.15;;;17.90;78.20;;;;;;5008896;28;20033;-74
2023/09/10 01:44:23;;;;;;;6.60;5.50;;;17.90;78.20;;;;;;5008473;28;20057;-74
2023/09/10 01:46:52;;;;;;;7.03;6.25;;;17.90;78.10;;;;;;5005757;28;20029;-75
2023/09/10 01:49:18;;;;;;;7.10;6.05;;;17.90;78.00;;;;;;5008480;28;20061;-75
2023/09/10 01:51:44;;;;;;;9.40;6.68;;;17.90;77.90;;;;;;5008148;28;20136;-74
2023/09/10 01:54:10;;;;;;;6.95;6.25;;;17.90;77.90;;;;;;5007356;28;20132;-74
2023/09/10 01:56:36;;;;;;;7.55;6.68;;;17.90;77.90;;;;;;5008682;28;20034;-77
2023/09/10 01:59:02;;;;;;;7.72;6.68;;;17.80;77.80;;;;;;5007837;28;20400;-75
2023/09/10 02:01:28;;;;;;;7.85;6.85;;;17.90;77.80;;;;;;5008223;28;20033;-74
2023/09/10 02:03:54;;;;;;;7.68;6.43;;;17.80;77.70;;;;;;4990928;28;20026;-76
2023/09/10 02:06:20;;;;;;;7.30;6.32;;;17.80;77.70;;;;;;5040095;28;20041;-75
2023/09/10 02:08:46;;;;;;;7.55;6.65;;;17.90;77.70;;;;;;5039847;28;20121;-75
2023/09/10 02:11:12;;;;;;;7.32;6.63;;;17.80;77.70;;;;;;5009302;28;20030;-75
2023/09/10 02:13:38;;;;;;;8.57;6.78;;;17.80;77.60;;;;;;5022671;28;20037;-74
2023/09/10 02:16:04;;;;;;;7.22;6.43;;;17.90;77.60;;;;;;4990207;28;20042;-75
2023/09/10 02:18:30;;;;;;;7.45;6.47;;;17.90;77.50;;;;;;5023157;28;20080;-75
2023/09/10 02:20:56;;;;;;;9.50;7.28;;;17.90;77.50;;;;;;4984416;28;20038;-75
2023/09/10 02:23:22;;;;;;;7.10;6.30;;;17.80;77.30;;;;;;5023815;28;20036;-75
2023/09/10 02:25:48;;;;;;;8.45;6.68;;;17.90;77.40;;;;;;5018427;28;20042;-75
2023/09/10 02:28:14;;;;;;;8.25;6.55;;;17.80;77.30;;;;;;5008104;28;20074;-74
2023/09/10 02:30:41;;;;;;;8.65;6.35;;;17.90;77.40;;;;;;5006699;28;20036;-75
2023/09/10 02:33:09;;;;;;;6.60;6.00;;;17.80;77.30;;;;;;5022682;28;20060;-75
2023/09/10 02:35:35;;;;;;;7.32;6.28;;;17.90;77.50;;;;;;5006796;28;20038;-75
2023/09/10 02:38:02;;;;;;;7.47;6.70;;;17.90;77.40;;;;;;5008601;28;20582;-75
2023/09/10 02:40:28;;;;;;;7.25;6.30;;;17.80;77.30;;;;;;5005886;28;20041;-74
2023/09/10 02:42:54;;;;;;;8.32;6.18;;;17.90;77.40;;;;;;5008034;28;20037;-75
2023/09/10 02:45:20;;;;;;;9.15;7.32;;;17.90;77.40;;;;;;5006557;28;20585;-74
2023/09/10 02:47:46;;;;;;;7.05;6.35;;;17.90;77.40;;;;;;5022026;28;20041;-75
2023/09/10 02:50:12;;;;;;;10.55;7.45;;;17.90;77.40;;;;;;5006968;28;20549;-77
2023/09/10 02:52:39;;;;;;;8.25;6.55;;;17.80;77.30;;;;;;5007619;28;20033;-75
2023/09/10 02:55:05;;;;;;;8.60;7.40;;;17.90;77.30;;;;;;5006086;28;20046;-75
2023/09/10 02:57:31;;;;;;;8.18;7.05;;;17.90;77.20;;;;;;5005716;28;20041;-76
2023/09/10 02:59:57;;;;;;;9.85;7.68;;;17.90;77.10;;;;;;5021851;28;20034;-76
2023/09/10 03:02:23;;;;;;;8.38;7.20;;;17.90;77.00;;;;;;5022214;28;20147;-75
2023/09/10 03:04:49;;;;;;;9.15;7.45;;;17.80;77.00;;;;;;5007248;28;20069;-75
2023/09/10 03:07:15;;;;;;;7.90;7.03;;;17.90;76.90;;;;;;5007360;28;20041;-75
2023/09/10 03:09:41;;;;;;;7.80;6.78;;;17.90;76.90;;;;;;5006218;28;20135;-76
2023/09/10 03:12:25;;;;;;;7.80;7.00;;;17.90;76.80;;;;;;5038672;28;20038;-75
2023/09/10 03:14:53;;;;;;;10.82;7.45;;;17.80;76.70;;;;;;5022424;28;20080;-75
2023/09/10 03:17:21;;;;;;;9.52;7.53;;;17.90;76.40;;;;;;5006438;28;20033;-75
2023/09/10 03:19:47;;;;;;;8.10;7.30;;;17.90;76.40;;;;;;4989051;28;20065;-74
2023/09/10 03:22:15;;;;;;;8.68;7.72;;;17.80;76.40;;;;;;5022006;28;20069;-75
2023/09/10 03:24:41;;;;;;;7.72;6.93;;;17.80;76.50;;;;;;5038788;28;20030;-75
2023/09/10 03:27:07;;;;;;;8.27;7.47;;;17.80;76.50;;;;;;5038199;28;20480;-74
2023/09/10 03:29:37;;;;;;;10.00;7.65;;;17.80;76.70;;;;;;4989382;28;20030;-75
2023/09/10 03:32:07;;;;;;;8.48;7.18;;;17.80;76.80;;;;;;5000969;28;20035;-75
2023/09/10 03:34:35;;;;;;;8.30;7.40;;;17.80;76.70;;;;;;4989310;28;20042;-75
2023/09/10 03:37:03;;;;;;;8.35;7.47;;;17.80;76.70;;;;;;5038121;28;20055;-75
2023/09/10 03:39:29;;;;;;;8.77;7.00;;;17.80;76.60;;;;;;5021704;28;20034;-75
2023/09/10 03:41:56;;;;;;;8.00;7.03;;;17.80;76.60;;;;;;5005523;28;20087;-75
2023/09/10 03:44:22;;;;;;;9.27;7.97;;;17.80;76.60;;;;;;5038704;28;20030;-75
2023/09/10 03:46:48;;;;;;;8.25;7.25;;;17.70;76.50;;;;;;5005179;28;20041;-75
2023/09/10 03:49:14;;;;;;;8.98;7.70;;;17.70;76.60;;;;;;5021590;28;20103;-76
2023/09/10 03:51:40;;;;;;;8.90;7.18;;;17.80;76.70;;;;;;5006215;28;20034;-75
2023/09/10 03:54:11;;;;;;;8.15;7.35;;;17.70;76.80;;;;;;5005184;28;20045;-75
2023/09/10 03:56:39;;;;;;;8.65;7.63;;;17.70;76.90;;;;;;5000437;28;20041;-75
2023/09/10 03:59:08;;;;;;;11.05;7.25;;;17.70;77.00;;;;;;5006911;28;20091;-75
2023/09/10 04:01:37;;;;;;;8.15;6.95;;;17.70;77.00;;;;;;5037870;28;20030;-75
2023/09/10 04:04:03;;;;;;;9.52;7.40;;;17.70;77.00;;;;;;5021106;28;20057;-75
2023/09/10 04:06:29;;;;;;;8.48;7.18;;;17.70;76.90;;;;;;4997864;28;20455;-76
2023/09/10 04:08:55;;;;;;;7.00;6.30;;;17.70;77.00;;;;;;5005232;28;20034;-76
2023/09/10 04:11:21;;;;;;;8.45;7.47;;;17.70;77.60;;;;;;5007310;28;20037;-75
2023/09/10 04:13:47;;;;;;;7.78;6.60;;;17.70;76.80;;;;;;5006124;28;20425;-75
2023/09/10 04:16:13;;;;;;;7.78;6.97;;;17.70;76.70;;;;;;5021494;28;20030;-76
2023/09/10 04:18:40;;;;;;;7.85;7.03;;;17.70;76.80;;;;;;5004948;28;20045;-75
2023/09/10 04:21:06;;;;;;;8.27;7.10;;;17.70;76.70;;;;;;5004531;28;20056;-75
2023/09/10 04:23:32;;;;;;;9.60;7.55;;;17.70;77.30;;;;;;5021064;28;20034;-75
2023/09/10 04:25:58;;;;;;;8.25;7.43;;;17.70;76.70;;;;;;5006468;28;20147;-75
2023/09/10 04:28:24;;;;;;;9.32;7.60;;;17.70;76.70;;;;;;5004705;28;20037;-75
2023/09/10 04:30:50;;;;;;;8.23;7.43;;;17.70;76.60;;;;;;5020903;28;20768;-74
2023/09/10 04:33:17;;;;;;;7.93;6.88;;;17.70;76.20;;;;;;5020694;28;20547;-75
2023/09/10 04:35:50;;;;;;;7.63;6.88;;;17.70;76.70;;;;;;5017838;28;20638;-73
2023/09/10 04:38:17;;;;;;;7.97;7.00;;;17.70;76.80;;;;;;5037042;28;20030;-76
2023/09/10 04:40:43;;;;;;;8.38;7.55;;;17.70;76.90;;;;;;5006056;28;20112;-75
2023/09/10 04:43:09;;;;;;;7.97;7.18;;;17.70;77.00;;;;;;5018205;28;20041;-75
2023/09/10 04:45:36;;;;;;;9.63;7.45;;;17.70;77.10;;;;;;5021162;28;20075;-75
2023/09/10 04:48:04;;;;;;;8.30;7.50;;;17.70;77.20;;;;;;5020909;28;20034;-75
2023/09/10 04:50:31;;;;;;;9.68;7.18;;;17.70;77.20;;;;;;5020931;28;20037;-74
2023/09/10 04:52:59;;;;;;;8.10;7.30;;;17.70;77.00;;;;;;5037179;28;20050;-75
2023/09/10 04:55:25;;;;;;;9.63;8.10;;;17.70;76.90;;;;;;5005092;28;20049;-73
2023/09/10 04:57:51;;;;;;;9.38;8.02;;;17.70;76.80;;;;;;5005819;28;20060;-74
2023/09/10 05:00:18;;;;;;;9.60;7.45;;;17.70;76.60;;;;;;5004854;28;20455;-75
2023/09/10 05:02:43;;;;;;;10.15;8.13;;;17.70;77.00;;;;;;5005506;28;20034;-76
2023/09/10 05:05:10;;;;;;;9.77;7.90;;;17.70;77.10;;;;;;5008246;28;20076;-74
2023/09/10 05:07:35;;;;;;;11.35;7.90;;;17.70;77.20;;;;;;5041315;28;20069;-75
2023/09/10 05:10:02;;;;;;;8.48;7.68;;;17.70;77.30;;;;;;5024421;28;20053;-74
2023/09/10 05:12:29;;;;;;;8.95;7.63;;;17.70;77.40;;;;;;4991293;28;20455;-74
2023/09/10 05:14:55;;;;;;;10.75;8.50;;;;;;;;;;5010182;28;20042;-74
2023/09/10 05:17:21;;;;;;;9.55;8.15;;;17.70;76.80;;;;;;5008597;28;20038;-75
2023/09/10 05:19:47;;;;;;;9.38;8.30;;;17.70;77.10;;;;;;5008974;28;20062;-76
2023/09/10 05:22:14;;;;;;;11.18;8.30;;;17.70;77.00;;;;;;5024194;28;20053;-75
2023/09/10 05:24:40;;;;;;;8.55;7.65;;;17.70;77.00;;;;;;5007833;28;20026;-75
2023/09/10 05:27:06;;;;;;;9.50;7.95;;;17.70;77.20;;;;;;5007603;28;20034;-75
2023/09/10 05:29:32;;;;;;;9.13;8.00;;;17.70;77.30;;;;;;5007550;28;20034;-75
2023/09/10 05:31:58;;;;;;;9.45;7.93;;;17.70;77.20;;;;;;5008238;28;20045;-76
2023/09/10 05:34:24;;;;;;;9.38;8.38;;;17.70;77.00;;;;;;5008399;28;20088;-75
2023/09/10 05:36:51;;;;;;;9.40;8.48;;;17.70;76.90;;;;;;5004944;28;20462;-74
2023/09/10 05:39:17;;;;;;;9.45;7.80;;;17.70;76.90;;;;;;5007791;28;20471;-74
2023/09/10 05:41:43;;;;;;;11.82;8.38;;;17.60;76.90;;;;;;5007500;28;20030;-75
2023/09/10 05:44:09;;;;;;;10.73;7.85;;;17.60;76.90;;;;;;5019787;28;20034;-75
2023/09/10 05:46:35;;;;;;;9.90;8.65;;;17.70;76.90;;;;;;5007583;28;20040;-75
2023/09/10 05:49:01;;;;;;;11.25;9.02;;;17.70;77.00;;;;;;5007319;28;20440;-75
2023/09/10 05:51:27;;;;;;;10.13;8.07;;;17.60;77.00;;;;;;5006770;28;20049;-74
2023/09/10 05:53:53;;;;;;;11.15;8.60;;;17.60;77.30;;;;;;5023475;28;20142;-75
2023/09/10 05:56:20;;;;;;;10.15;7.90;;;17.60;77.50;;;;;;5007588;28;20026;-75
2023/09/10 05:58:46;;;;;;;11.48;8.80;;;17.80;78.00;;;;;;5007165;28;20495;-74
2023/09/10 06:01:12;;;;;;;9.95;8.32;;;17.60;77.60;;;;;;5008355;28;20030;-75
2023/09/10 06:03:38;;;;;;;10.40;8.35;;;17.60;77.60;;;;;;5018821;28;20082;-77
2023/09/10 06:06:04;;;;;;;10.38;9.18;;;17.70;77.60;;;;;;5007137;28;20093;-75
2023/09/10 06:08:31;;;;;;;10.90;8.65;;;17.60;77.60;;;;;;4990938;28;20385;-75
2023/09/10 06:10:57;;;;;;;11.65;8.70;;;17.70;77.60;;;;;;5040342;28;20048;-75
2023/09/10 06:13:23;;;;;;;11.57;8.60;;;17.70;77.50;;;;;;5008137;28;20089;-76
2023/09/10 06:15:49;;;;;;;10.82;8.70;;;17.70;77.20;;;;;;5021932;28;20042;-76
2023/09/10 06:18:16;;;;;;;9.88;8.85;;;17.70;77.70;;;;;;5008274;28;20153;-76
2023/09/10 06:20:42;;;;;;;9.90;8.30;;;17.70;77.00;;;;;;5039368;28;20041;-76
2023/09/10 06:23:07;;;;;;;11.27;9.35;;;17.70;77.20;;;;;;5038794;28;20042;-77
2023/09/10 06:25:34;;;;;;;12.10;9.40;;;17.70;76.80;;;;;;5007637;28;20061;-76
2023/09/10 06:28:01;;;;;;;11.52;9.32;;;17.70;77.00;;;;;;5022965;28;20084;-76
2023/09/10 06:30:27;;;;;;;11.68;9.63;;;17.70;77.20;;;;;;5008517;28;20520;-76
2023/09/10 06:32:53;;;;;;;12.73;9.10;;;17.70;77.20;;;;;;4990432;28;20030;-75
2023/09/10 06:35:19;;;;;;;11.93;9.43;;;17.70;77.10;;;;;;5039529;28;20038;-75
2023/09/10 06:37:47;;;;;;;11.55;9.50;;;17.70;77.00;;;;;;5006267;28;20052;-75
2023/09/10 06:40:14;;;;;;;10.70;9.35;;;17.70;77.10;;;;;;5006683;28;20037;-75
2023/09/10 06:42:42;;;;;;;11.88;9.30;;;17.70;77.10;;;;;;5001710;28;20041;-75
2023/09/10 06:45:15;;;;;;;11.60;8.63;;;17.70;77.00;;;;;;5039521;28;20053;-75
2023/09/10 06:47:41;;;;;;;11.77;9.07;;;17.70;76.90;;;;;;5039222;28;20030;-76
2023/09/10 06:50:07;;;;;;;13.32;9.85;;;17.70;76.80;;;;;;5006310;28;20587;-75
2023/09/10 06:52:33;;;;;;;12.45;9.98;;;17.70;77.00;;;;;;5023841;28;20034;-75
2023/09/10 06:55:01;;;;;;;12.32;10.80;;;17.70;77.10;;;;;;5008483;28;20382;-74
2023/09/10 06:57:29;;;;;;;13.05;10.75;;;17.70;77.10;;;;;;5008473;28;20033;-74
2023/09/10 06:59:56;;;;;;;14.52;11.13;;;17.70;77.20;;;;;;5015227;28;20690;-77
2023/09/10 07:02:22;;;;;;;13.43;11.13;;;17.70;78.00;;;;;;5015440;28;20081;-77
2023/09/10 07:04:48;;;;;;;15.10;11.57;;;17.70;77.60;;;;;;5012453;28;20124;-76
2023/09/10 07:07:15;;;;;;;15.77;12.10;;;17.80;77.70;;;;;;5026734;28;20052;-75
2023/09/10 07:09:41;;;;;;;13.98;11.60;;;17.80;77.80;;;;;;5010287;28;20053;-76
2023/09/10 07:12:07;;;;;;;12.98;11.48;;;17.80;77.90;;;;;;5010103;28;20041;-78
2023/09/10 07:14:33;;;;;;;12.98;10.70;;;17.80;77.90;;;;;;5010441;28;20133;-79
2023/09/10 07:16:59;;;;;;;13.25;10.75;;;17.80;77.80;;;;;;4992327;28;20185;-80
2023/09/10 07:19:25;;;;;;;13.70;11.32;;;17.80;77.90;;;;;;4994915;28;20172;-78
2023/09/10 07:21:51;;;;;;;13.77;11.55;;;17.80;78.00;;;;;;5009409;28;20030;-78
2023/09/10 07:24:17;;;;;;;14.73;12.10;;;17.80;77.80;;;;;;4990321;28;20038;-78
2023/09/10 07:26:43;;;;;;;14.80;11.40;;;17.90;78.00;;;;;;5007202;28;20836;-78
2023/09/10 07:29:09;;;;;;;14.43;11.55;;;17.90;78.10;;;;;;5006678;28;20038;-78
2023/09/10 07:31:35;;;;;;;15.63;12.45;;;17.90;78.20;;;;;;5007353;28;20042;-77
2023/09/10 07:34:02;;;;;;;13.40;11.85;;;17.90;78.00;;;;;;5005878;28;20038;-78
2023/09/10 07:36:29;;;;;;;16.95;12.15;;;17.90;77.90;;;;;;5038289;28;20393;-78
2023/09/10 07:38:57;;;;;;;16.20;12.50;;;17.90;77.50;;;;;;5007338;28;20034;-78
2023/09/10 07:41:23;;;;;;;16.52;12.43;;;17.90;77.10;;;;;;4986559;28;20037;-77
2023/09/10 07:43:50;;;;;;;15.45;12.60;;;18.00;76.80;;;;;;5038454;28;20034;-77
2023/09/10 07:46:16;;;;;;;16.92;12.95;;;17.90;76.80;;;;;;5007516;28;20057;-78
2023/09/10 07:48:42;;;;;;;15.35;12.55;;;17.90;77.20;;;;;;5004839;28;20037;-82
2023/09/10 07:51:08;;;;;;;14.98;12.32;;;17.90;77.30;;;;;;5021047;28;20038;-79
2023/09/10 07:53:33;;;;;;;16.05;12.38;;;18.00;77.30;;;;;;5006329;28;20587;-79
2023/09/10 07:55:59;;;;;;;15.13;13.00;;;17.90;77.00;;;;;;5006180;28;20034;-80
2023/09/10 07:58:25;;;;;;;16.63;12.50;;;18.00;76.80;;;;;;5003951;28;20419;-82
2023/09/10 08:00:58;;;;;;;18.65;13.00;;;18.00;76.80;;;;;;5005176;28;20120;-81
2023/09/10 08:03:24;;;;;;;17.10;13.02;;;18.00;77.00;;;;;;5002734;28;20113;-82
2023/09/10 08:05:50;;;;;;;17.70;14.18;;;18.00;77.10;;;;;;5006404;28;20107;-80
2023/09/10 08:08:17;;;;;;;14.80;12.23;;;18.00;77.20;;;;;;5007111;28;20054;-79
2023/09/10 08:10:45;;;;;;;21.17;13.48;;;18.00;77.10;;;;;;5006494;28;20030;-81
2023/09/10 08:13:12;;;;;;;14.52;12.57;;;18.00;77.10;;;;;;5006480;28;20107;-83
2023/09/10 08:15:41;;;;;;;19.00;13.55;;;18.00;77.00;;;;;;5021093;28;20048;-81
2023/09/10 08:18:10;;;;;;;16.13;12.88;;;18.10;77.00;;;;;;5004373;28;20463;-78
2023/09/10 08:20:38;;;;;;;15.07;13.30;;;18.00;76.80;;;;;;5038518;28;20124;-82
2023/09/10 08:23:05;;;;;;;16.50;13.15;;;18.00;77.00;;;;;;5005651;28;20183;-79
2023/09/10 08:25:31;;;;;;;17.33;14.07;;;18.00;77.00;;;;;;5006627;28;20463;-80
2023/09/10 08:27:58;;;;;;;15.88;13.10;;;18.10;77.20;;;;;;5006947;28;20120;-82
2023/09/10 08:30:25;;;;;;;15.13;13.02;;;18.10;77.20;;;;;;5021306;28;20034;-82
2023/09/10 08:32:51;;;;;;;18.00;12.85;;;18.10;77.10;;;;;;5006540;28;20073;-81
2023/09/10 08:35:21;;;;;;;17.73;13.93;;;18.10;77.00;;;;;;5005645;28;20072;-81
2023/09/10 08:37:47;;;;;;;16.23;13.52;;;18.20;77.10;;;;;;5006317;28;20030;-81
2023/09/10 08:40:17;;;;;;;16.10;13.40;;;18.20;76.90;;;;;;5041887;28;20030;-81
2023/09/10 08:43:03;;;;;;;15.48;13.65;;;18.20;76.90;;;;;;5008412;28;20125;-83
2023/09/10 08:45:29;;;;;;;15.77;12.55;;;18.20;76.80;;;;;;5008476;28;20038;-80
2023/09/10 08:47:57;;;;;;;20.48;13.30;;;18.20;76.80;;;;;;5008791;28;20038;-80
2023/09/10 08:50:24;;;;;;;16.05;13.98;;;18.20;76.70;;;;;;5009064;28;20022;-81
2023/09/10 08:52:52;;;;;;;18.17;13.85;;;18.20;76.60;;;;;;5008531;28;20049;-81
2023/09/10 08:55:18;;;;;;;17.08;13.73;;;18.20;76.50;;;;;;5009363;28;20038;-82
2023/09/10 08:57:45;;;;;;;16.67;13.70;;;18.20;76.20;;;;;;4992548;28;20034;-81
2023/09/10 09:00:12;;;;;;;16.92;13.55;;;18.30;76.10;;;;;;5009956;28;20034;-80
2023/09/10 09:02:46;;;;;;;19.63;14.50;;;18.20;76.00;;;;;;5007685;28;20032;-84
2023/09/10 09:05:12;;;;;;;15.50;13.77;;;18.30;76.20;;;;;;5009381;28;20083;-86
2023/09/10 09:08:01;;;;;;;17.63;13.98;;;18.30;76.00;;;;;;5009501;28;20547;-81
2023/09/10 09:10:29;;;;;;;17.70;13.02;;;18.30;75.70;;;;;;5008315;28;20037;-84
2023/09/10 09:13:03;;;;;;;15.75;13.40;;;18.30;75.30;;;;;;5008162;28;20175;-85
2023/09/10 09:15:31;;;;;;;14.90;12.98;;;18.40;75.10;;;;;;5008191;28;20049;-84
2023/09/10 09:18:00;;;;;;;16.40;13.95;;;18.30;75.10;;;;;;4992665;28;20037;-85
2023/09/10 09:20:26;;;;;;;17.23;13.68;;;18.30;75.40;;;;;;5008216;28;20041;-82
2023/09/10 09:22:58;;;;;;;16.00;14.05;;;18.30;76.00;;;;;;5009084;28;20504;-83
2023/09/10 09:25:24;;;;;;;18.27;14.23;;;18.30;76.00;;;;;;5002367;28;20835;-82
2023/09/10 09:27:53;;;;;;;18.67;14.35;;;18.40;76.20;;;;;;5024434;28;20053;-82
2023/09/10 09:30:19;;;;;;;15.77;12.73;;;18.40;76.30;;;;;;5019042;28;20034;-82
2023/09/10 09:32:45;;;;;;;15.77;12.82;;;18.40;75.90;;;;;;5009717;28;20087;-80
2023/09/10 09:35:11;;;;;;;17.40;13.63;;;18.40;75.60;;;;;;5008519;28;20030;-83
2023/09/10 09:37:37;;;;;;;15.85;13.38;;;18.40;75.50;;;;;;5024205;28;20057;-83
2023/09/10 09:40:04;;;;;;;18.20;13.13;;;18.50;75.20;;;;;;5009675;28;20026;-85
2023/09/10 09:42:30;;;;;;;15.05;12.45;;;18.50;75.10;;;;;;5011933;28;20025;-87
2023/09/10 09:44:57;;;;;;;17.38;13.70;;;18.50;75.00;;;;;;5013233;28;20180;-89
2023/09/10 09:47:23;;;;;;;16.20;12.80;;;18.50;74.80;;;;;;5013392;28;20034;-89
2023/09/10 09:49:50;;;;;;;14.35;12.57;;;18.60;74.60;;;;;;5028515;28;20393;-85
2023/09/10 09:52:18;;;;;;;14.60;12.73;;;18.60;74.40;;;;;;5009121;28;20078;-85
2023/09/10 09:54:46;;;;;;;14.50;12.18;;;18.60;74.70;;;;;;5008536;28;20048;-84
2023/09/10 09:57:12;;;;;;;15.30;12.98;;;18.60;74.40;;;;;;5007674;28;20058;-82
2023/09/10 09:59:37;;;;;;;14.60;12.40;;;18.60;74.50;;;;;;5041300;28;20495;-85
2023/09/10 10:02:04;;;;;;;16.15;12.75;;;18.60;74.70;;;;;;5040814;28;20026;-83
2023/09/10 10:04:34;;;;;;;16.27;12.73;;;18.60;75.00;;;;;;5020208;28;20128;-84
2023/09/10 10:07:01;;;;;;;13.57;12.18;;;18.70;74.90;;;;;;4989619;28;20041;-84
2023/09/10 10:09:38;;;;;;;14.77;12.52;;;18.70;74.80;;;;;;5039941;28;20041;-83
2023/09/10 10:12:05;;;;;;;14.75;13.02;;;18.80;74.90;;;;;;5007265;28;20041;-82
2023/09/10 10:14:35;;;;;;;15.43;12.40;;;18.80;74.70;;;;;;5007502;28;20044;-88
2023/09/10 10:17:03;;;;;;;14.20;12.40;;;18.80;74.80;;;;;;5040260;28;20091;-84
2023/09/10 10:19:30;;;;;;;13.80;12.40;;;18.90;74.50;;;;;;5011193;28;20123;-91
2023/09/10 10:21:57;;;;;;;15.85;13.05;;;18.90;74.60;;;;;;5027511;28;20044;-85
2023/09/10 10:24:23;;;;;;;13.88;12.00;;;18.90;74.40;;;;;;5008149;28;20041;-87
2023/09/10 10:26:51;;;;;;;15.75;12.35;;;18.90;74.20;;;;;;5010730;28;20412;-85
2023/09/10 10:29:21;;;;;;;13.35;11.95;;;19.00;74.10;;;;;;5014389;28;20038;-90
2023/09/10 10:32:12;;;;;;;13.48;12.02;;;19.10;73.60;;;;;;5012502;28;20053;-90
2023/09/10 10:34:47;;;;;;;13.60;12.20;;;19.10;73.40;;;;;;5010810;28;20042;-86
2023/09/10 10:37:16;;;;;;;14.45;12.48;;;19.10;73.30;;;;;;5008003;28;20128;-78
2023/09/10 10:39:54;;;;;;;12.95;11.65;;;19.10;73.20;;;;;;5040056;28;20040;-79
2023/09/10 10:42:36;;;;;;;16.15;12.02;;;19.10;72.80;;;;;;5040010;28;20512;-79
2023/09/10 10:45:06;;;;;;;12.55;11.25;;;19.20;72.70;;;;;;5009253;28;20041;-80
2023/09/10 10:47:40;;;;;;;12.65;11.35;;;19.20;72.30;;;;;;5019094;28;20075;-80
2023/09/10 10:50:09;;;;;;;12.73;11.38;;;19.20;72.70;;;;;;5007054;28;20044;-79
2023/09/10 10:52:42;;;;;;;12.90;10.65;;;19.20;72.90;;;;;;5006076;28;20045;-80
2023/09/10 10:55:09;;;;;;;12.80;10.85;;;19.20;73.00;;;;;;5021971;28;20034;-79
2023/09/10 10:57:36;;;;;;;13.18;11.05;;;19.20;72.70;;;;;;5005970;28;20084;-77
2023/09/10 11:00:05;;;;;;;13.15;10.35;;;19.20;72.70;;;;;;5007728;28;20026;-78
2023/09/10 11:02:30;;;;;;;13.18;10.55;;;19.30;72.60;;;;;;5021540;28;20393;-76
2023/09/10 11:05:00;;;;;;;11.27;10.10;;;19.30;72.70;;;;;;5007667;28;20045;-77
2023/09/10 11:07:29;;;;;;;13.02;10.73;;;19.30;72.60;;;;;;5007203;28;20045;-77
2023/09/10 11:09:57;;;;;;;12.02;10.82;;;19.30;72.90;;;;;;5038962;28;20045;-78
2023/09/10 11:12:24;;;;;;;12.50;10.45;;;19.30;72.20;;;;;;5007727;28;20065;-78
2023/09/10 11:14:59;;;;;;;12.00;10.77;;;19.30;72.20;;;;;;5005673;28;20053;-77
2023/09/10 11:17:29;;;;;;;11.25;10.05;;;19.30;72.40;;;;;;5008120;28;20033;-78
2023/09/10 11:19:55;;;;;;;11.00;9.85;;;19.40;72.10;;;;;;5020110;28;20065;-77
2023/09/10 11:22:22;;;;;;;11.23;9.98;;;19.40;72.10;;;;;;5007445;28;20117;-77
2023/09/10 11:25:02;;;;;;;12.82;10.38;;;19.40;71.80;;;;;;5006309;28;20492;-79
2023/09/10 11:27:30;;;;;;;12.15;10.40;;;19.40;71.80;;;;;;5006967;28;20030;-77
2023/09/10 11:30:09;;;;;;;12.32;10.35;;;19.40;72.00;;;;;;5007049;28;20026;-80
2023/09/10 11:32:35;;;;;;;12.18;10.00;;;19.40;72.20;;;;;;5038996;28;20418;-78
2023/09/10 11:35:25;;;;;;;11.32;10.20;;;19.40;72.20;;;;;;5005957;28;20034;-78
2023/09/10 11:37:53;;;;;;;12.13;10.10;;;19.40;72.40;;;;;;5032167;28;20037;-78
2023/09/10 11:40:19;;;;;;;12.93;10.18;;;19.40;72.40;;;;;;5006355;28;20045;-77
2023/09/10 11:42:47;;;;;;;11.95;10.55;;;19.40;72.30;;;;;;5006961;28;20072;-77
2023/09/10 11:45:13;;;;;;;11.82;10.55;;;19.50;72.40;;;;;;5021054;28;20088;-77
2023/09/10 11:47:43;;;;;;;12.20;9.77;;;19.50;72.30;;;;;;5006670;28;20469;-78
2023/09/10 11:50:11;;;;;;;11.52;10.15;;;19.50;72.30;;;;;;5006845;28;20044;-77
2023/09/10 11:52:37;;;;;;;11.10;10.00;;;19.50;72.40;;;;;;5006533;28;20473;-77
2023/09/10 11:55:09;;;;;;;11.95;10.63;;;19.60;72.40;;;;;;5006687;28;20034;-78
2023/09/10 11:57:36;;;;;;;12.30;10.40;;;19.60;72.30;;;;;;5007870;28;20057;-78
2023/09/10 12:00:05;;;;;;;12.60;10.82;;;19.60;72.50;;;;;;5011267;28;20032;-78
2023/09/10 12:02:37;;;;;;;12.82;10.65;;;19.60;72.80;;;;;;5009794;28;20091;-78
2023/09/10 12:05:09;;;;;;;13.00;10.38;;;19.60;72.70;;;;;;5010885;28;20025;-78
2023/09/10 12:07:35;;;;;;;12.52;11.20;;;19.60;72.90;;;;;;5003088;28;20491;-77
2023/09/10 12:10:02;;;;;;;11.75;10.55;;;19.60;72.80;;;;;;5010938;28;20457;-78
2023/09/10 12:12:32;;;;;;;13.55;11.48;;;19.60;72.90;;;;;;5007156;28;20034;-79
2023/09/10 12:14:59;;;;;;;14.82;11.13;;;19.60;72.80;;;;;;5003084;28;20512;-77
2023/09/10 12:17:25;;;;;;;14.18;11.32;;;19.70;73.00;;;;;;5010885;28;20057;-77
2023/09/10 12:19:51;;;;;;;11.38;10.18;;;19.70;72.60;;;;;;5008650;28;20042;-77
2023/09/10 12:22:19;;;;;;;12.15;10.85;;;19.70;72.40;;;;;;5008143;28;20076;-77
2023/09/10 12:24:45;;;;;;;14.65;11.43;;;19.70;72.20;;;;;;5009039;28;20062;-77
2023/09/10 12:27:13;;;;;;;13.55;11.85;;;19.70;72.10;;;;;;5009624;28;20034;-76
2023/09/10 12:29:42;;;;;;;18.08;12.32;;;19.70;72.00;;;;;;5024781;28;20026;-76
2023/09/10 12:32:09;;;;;;;14.13;11.95;;;19.70;71.90;;;;;;5007105;28;20117;-76
2023/09/10 12:34:36;;;;;;;14.25;11.95;;;19.70;71.90;;;;;;5006486;28;20034;-76
2023/09/10 12:37:02;;;;;;;15.23;12.68;;;19.70;71.70;;;;;;5010985;28;20045;-76
2023/09/10 12:39:28;;;;;;;13.25;11.77;;;19.70;71.90;;;;;;5009558;28;20045;-76
2023/09/10 12:41:56;;;;;;;15.90;12.10;;;19.70;72.40;;;;;;5009425;28;20034;-77